createdAt,value
2018-12-26T00:02:12.226Z,102085.33
2018-12-26T00:04:36.613Z,102087.22
2018-12-26T00:07:01.042Z,102083.66
2018-12-26T00:09:25.430Z,102078.92
2018-12-26T00:11:49.874Z,102078.30
2018-12-26T00:14:14.291Z,102084.18
2018-12-26T00:16:51.167Z,102085.41
2018-12-26T00:19:15.547Z,102080.53
2018-12-26T00:21:39.945Z,102080.34
2018-12-26T00:24:04.388Z,102087.27
2018-12-26T00:26:28.856Z,102088.51
2018-12-26T00:28:53.279Z,102089.59
2018-12-26T00:31:17.675Z,102086.12
2018-12-26T00:33:42.161Z,102082.02
2018-12-26T00:36:06.577Z,102080.25
2018-12-26T00:38:31.002Z,102074.83
2018-12-26T00:40:55.397Z,102088.37
2018-12-26T00:43:19.825Z,102074.69
2018-12-26T00:45:44.234Z,102068.66
2018-12-26T00:48:08.637Z,102068.97
2018-12-26T00:50:33.046Z,102070.32
2018-12-26T00:52:57.448Z,102067.45
2018-12-26T00:55:21.864Z,102067.48
2018-12-26T00:57:46.268Z,102073.33
2018-12-26T01:00:10.694Z,102070.09
2018-12-26T01:02:35.103Z,102062.75
2018-12-26T01:04:59.517Z,102058.62
2018-12-26T01:07:23.917Z,102056.38
2018-12-26T01:09:48.416Z,102056.58
2018-12-26T01:12:12.816Z,102057.08
2018-12-26T01:14:37.227Z,102053.38
2018-12-26T01:17:01.639Z,102047.59
2018-12-26T01:19:26.034Z,102045.57
2018-12-26T01:21:50.455Z,102042.62
2018-12-26T01:24:14.843Z,102041.95
2018-12-26T01:26:39.244Z,102038.11
2018-12-26T01:29:03.647Z,102046.94
2018-12-26T01:31:28.058Z,102044.05
2018-12-26T01:33:52.436Z,102055.58
2018-12-26T01:36:16.863Z,102051.91
2018-12-26T01:38:41.292Z,102053.89
2018-12-26T01:41:05.679Z,102053.66
2018-12-26T01:43:30.120Z,102037.95
2018-12-26T01:45:59.806Z,102040.73
2018-12-26T01:48:24.216Z,102044.20
2018-12-26T01:50:48.603Z,102043.38
2018-12-26T01:55:49.104Z,102032.09
2018-12-26T02:00:52.875Z,102037.06
2018-12-26T02:03:17.286Z,102046.61
2018-12-26T02:05:41.689Z,102045.80
2018-12-26T02:08:06.072Z,102049.12
2018-12-26T02:10:30.487Z,102043.56
2018-12-26T02:12:54.915Z,102046.06
2018-12-26T02:15:19.304Z,102050.21
2018-12-26T02:17:43.716Z,102027.67
2018-12-26T02:20:08.195Z,102041.88
2018-12-26T02:22:32.601Z,102026.97
2018-12-26T02:24:57.025Z,102024.78
2018-12-26T02:27:26.692Z,102024.20
2018-12-26T02:29:51.122Z,102026.24
2018-12-26T02:32:15.504Z,102020.22
2018-12-26T02:34:39.894Z,101995.73
2018-12-26T02:37:04.289Z,101995.97
2018-12-26T02:39:28.693Z,101994.73
2018-12-26T02:44:29.108Z,102000.01
2018-12-26T02:46:53.551Z,101995.02
2018-12-26T02:49:17.936Z,101992.41
2018-12-26T02:51:42.353Z,101990.00
2018-12-26T02:54:06.755Z,101987.77
2018-12-26T02:56:31.237Z,101998.44
2018-12-26T02:58:55.626Z,101981.03
2018-12-26T03:01:20.003Z,101982.13
2018-12-26T03:03:44.416Z,101978.28
2018-12-26T03:06:08.835Z,101976.19
2018-12-26T03:08:33.249Z,101973.95
2018-12-26T03:10:57.716Z,101971.06
2018-12-26T03:13:22.371Z,101965.47
2018-12-26T03:15:46.932Z,101960.73
2018-12-26T03:18:11.352Z,101957.50
2018-12-26T03:20:35.753Z,101965.53
2018-12-26T03:23:00.172Z,101960.73
2018-12-26T03:25:24.568Z,101954.80
2018-12-26T03:27:49.053Z,101963.13
2018-12-26T03:30:13.446Z,101972.63
2018-12-26T03:32:37.851Z,101969.87
2018-12-26T03:35:02.279Z,101973.20
2018-12-26T03:37:26.737Z,101971.70
2018-12-26T03:39:51.298Z,101968.95
2018-12-26T03:42:15.778Z,101975.93
2018-12-26T03:44:51.508Z,101974.17
2018-12-26T03:47:27.482Z,101961.72
2018-12-26T03:49:51.915Z,101975.27
2018-12-26T03:52:16.322Z,101974.59
2018-12-26T03:54:40.741Z,101976.19
2018-12-26T03:57:06.424Z,101969.17
2018-12-26T03:59:36.851Z,101960.14
2018-12-26T04:02:01.318Z,101958.52
2018-12-26T04:04:25.721Z,101957.09
2018-12-26T04:06:50.128Z,101950.11
2018-12-26T04:09:14.519Z,101955.22
2018-12-26T04:11:39.071Z,101948.77
2018-12-26T04:14:03.527Z,101949.03
2018-12-26T04:16:27.960Z,101947.52
2018-12-26T04:18:52.358Z,101951.53
2018-12-26T04:21:16.948Z,101950.00
2018-12-26T04:23:41.355Z,101946.45
2018-12-26T04:26:05.767Z,101931.70
2018-12-26T04:28:30.198Z,101955.56
2018-12-26T04:30:54.577Z,101937.70
2018-12-26T04:33:31.014Z,101946.68
2018-12-26T04:35:55.400Z,101943.66
2018-12-26T04:38:19.822Z,101944.64
2018-12-26T04:40:44.217Z,101949.29
2018-12-26T04:43:08.781Z,101949.95
2018-12-26T04:45:33.115Z,101946.31
2018-12-26T04:47:57.500Z,101956.87
2018-12-26T04:52:58.011Z,101959.58
2018-12-26T04:55:22.415Z,101953.51
2018-12-26T04:57:46.807Z,101968.80
2018-12-26T05:00:11.222Z,101962.57
2018-12-26T05:02:35.617Z,101958.52
2018-12-26T05:05:00.010Z,101977.82
2018-12-26T05:07:24.407Z,101960.11
2018-12-26T05:09:48.846Z,101964.08
2018-12-26T05:12:13.250Z,101956.50
2018-12-26T05:14:37.647Z,101969.03
2018-12-26T05:17:02.058Z,101962.47
2018-12-26T05:19:26.479Z,101956.75
2018-12-26T05:21:50.894Z,101956.30
2018-12-26T05:24:15.288Z,101952.37
2018-12-26T05:26:39.690Z,101954.19
2018-12-26T05:29:04.094Z,101966.55
2018-12-26T05:31:28.497Z,101956.39
2018-12-26T05:33:52.882Z,101962.99
2018-12-26T05:36:17.310Z,101965.74
2018-12-26T05:38:41.696Z,101974.46
2018-12-26T05:41:06.102Z,101967.63
2018-12-26T05:43:30.526Z,101975.40
2018-12-26T05:45:54.921Z,101975.30
2018-12-26T05:48:19.327Z,101956.66
2018-12-26T05:50:43.715Z,101948.63
2018-12-26T05:53:08.118Z,101962.80
2018-12-26T05:55:32.520Z,101960.09
2018-12-26T06:00:33.048Z,101973.43
2018-12-26T06:02:57.463Z,101967.67
2018-12-26T06:05:21.847Z,101969.51
2018-12-26T06:07:46.241Z,101969.55
2018-12-26T06:10:10.655Z,101976.61
2018-12-26T06:12:35.046Z,101991.73
2018-12-26T06:14:59.445Z,101987.20
2018-12-26T06:17:23.838Z,101986.33
2018-12-26T06:19:48.302Z,101976.27
2018-12-26T06:22:12.657Z,101994.91
2018-12-26T06:24:37.070Z,101992.84
2018-12-26T06:27:01.469Z,101996.15
2018-12-26T06:29:25.850Z,101986.43
2018-12-26T06:31:50.245Z,101988.81
2018-12-26T06:34:14.716Z,101989.15
2018-12-26T06:36:39.127Z,101990.13
2018-12-26T06:39:14.421Z,101983.92
2018-12-26T06:41:38.821Z,101964.35
2018-12-26T06:44:03.219Z,101981.53
2018-12-26T06:46:27.645Z,101987.03
2018-12-26T06:48:52.035Z,101986.00
2018-12-26T06:51:16.519Z,101986.06
2018-12-26T06:53:40.895Z,101983.52
2018-12-26T06:56:05.273Z,101987.33
2018-12-26T06:58:29.675Z,101986.77
2018-12-26T07:00:54.064Z,101982.87
2018-12-26T07:03:18.473Z,101985.52
2018-12-26T07:05:42.859Z,101997.72
2018-12-26T07:08:07.260Z,101992.73
2018-12-26T07:10:31.655Z,101995.88
2018-12-26T07:12:56.056Z,102000.14
2018-12-26T07:15:20.447Z,101999.20
2018-12-26T07:17:44.876Z,101997.42
2018-12-26T07:20:09.261Z,101998.59
2018-12-26T07:22:33.654Z,101996.55
2018-12-26T07:24:58.076Z,101995.04
2018-12-26T07:27:34.420Z,102001.24
2018-12-26T07:29:58.821Z,101995.11
2018-12-26T07:32:23.235Z,101986.83
2018-12-26T07:34:47.642Z,101995.61
2018-12-26T07:37:12.023Z,101990.84
2018-12-26T07:39:36.425Z,101988.51
2018-12-26T07:42:00.817Z,101997.15
2018-12-26T07:44:25.272Z,101999.30
2018-12-26T07:46:49.672Z,102002.63
2018-12-26T07:49:14.062Z,101989.51
2018-12-26T07:51:38.476Z,101997.89
2018-12-26T07:54:02.928Z,101983.21
2018-12-26T07:56:27.292Z,101989.95
2018-12-26T07:58:51.678Z,101986.59
2018-12-26T08:01:16.089Z,101988.58
2018-12-26T08:03:40.492Z,101995.61
2018-12-26T08:06:04.924Z,102000.07
2018-12-26T08:08:29.307Z,102000.47
2018-12-26T08:10:53.707Z,101994.27
2018-12-26T08:13:18.104Z,102004.09
2018-12-26T08:15:42.488Z,101992.59
2018-12-26T08:18:06.895Z,101988.67
2018-12-26T08:20:31.288Z,101995.11
2018-12-26T08:22:55.692Z,101994.04
2018-12-26T08:25:20.072Z,101990.13
2018-12-26T08:27:44.476Z,101983.21
2018-12-26T08:30:08.865Z,101989.00
2018-12-26T08:32:33.290Z,101989.65
2018-12-26T08:34:57.673Z,101999.20
2018-12-26T08:37:22.048Z,101988.88
2018-12-26T08:39:46.443Z,101981.42
2018-12-26T08:42:10.842Z,101980.12
2018-12-26T08:44:35.245Z,101990.20
2018-12-26T08:46:59.660Z,101982.67
2018-12-26T08:49:24.056Z,101975.02
2018-12-26T08:51:48.452Z,101975.98
2018-12-26T08:54:12.863Z,101994.48
2018-12-26T08:56:37.256Z,101987.11
2018-12-26T08:59:01.759Z,101989.35
2018-12-26T09:01:26.318Z,101985.20
2018-12-26T09:03:50.687Z,101987.95
2018-12-26T09:06:15.099Z,101982.92
2018-12-26T09:08:39.481Z,101991.89
2018-12-26T09:11:03.901Z,101994.63
2018-12-26T09:13:28.309Z,101998.97
2018-12-26T09:15:52.729Z,101998.82
2018-12-26T09:18:17.127Z,101995.25
2018-12-26T09:20:41.556Z,102001.08
2018-12-26T09:23:05.954Z,102003.02
2018-12-26T09:25:30.429Z,102000.66
2018-12-26T09:27:54.859Z,102004.14
2018-12-26T09:30:19.248Z,102002.91
2018-12-26T09:32:43.676Z,101998.97
2018-12-26T09:38:04.553Z,101994.98
2018-12-26T09:40:28.980Z,101988.63
2018-12-26T09:42:53.376Z,101984.78
2018-12-26T09:45:17.793Z,101989.84
2018-12-26T09:47:42.215Z,101982.02
2018-12-26T09:53:03.946Z,101990.69
2018-12-26T09:55:28.332Z,101988.19
2018-12-26T09:57:52.852Z,101985.20
2018-12-26T10:00:17.263Z,101986.68
2018-12-26T10:02:41.636Z,101988.05
2018-12-26T10:05:26.850Z,101999.55
2018-12-26T10:07:51.257Z,101995.22
2018-12-26T10:10:15.660Z,101983.64
2018-12-26T10:12:40.067Z,101974.21
2018-12-26T10:15:15.988Z,101989.80
2018-12-26T10:17:40.390Z,101979.66
2018-12-26T10:23:01.637Z,101987.05
2018-12-26T10:25:26.054Z,101980.75
2018-12-26T10:27:50.435Z,101984.07
2018-12-26T10:30:14.843Z,101981.55
2018-12-26T10:32:39.271Z,101989.11
2018-12-26T10:35:03.838Z,101982.33
2018-12-26T10:37:28.229Z,101987.77
2018-12-26T10:39:52.626Z,101986.53
2018-12-26T10:42:17.043Z,101994.33
2018-12-26T10:44:41.422Z,101986.53
2018-12-26T10:47:06.875Z,101987.48
2018-12-26T10:49:31.300Z,101987.57
2018-12-26T10:51:55.706Z,101983.80
2018-12-26T10:54:20.202Z,101980.70
2018-12-26T10:56:44.600Z,101967.93
2018-12-26T10:59:10.282Z,101979.73
2018-12-26T11:01:34.903Z,101975.11
2018-12-26T11:03:59.341Z,101978.10
2018-12-26T11:06:23.741Z,101979.89
2018-12-26T11:08:48.144Z,101986.70
2018-12-26T11:11:12.549Z,101975.12
2018-12-26T11:13:36.962Z,101987.20
2018-12-26T11:16:01.425Z,101982.28
2018-12-26T11:18:25.901Z,101979.61
2018-12-26T11:20:50.322Z,101970.92
2018-12-26T11:23:14.750Z,101978.71
2018-12-26T11:25:39.167Z,101979.73
2018-12-26T11:28:03.590Z,101968.92
2018-12-26T11:30:28.019Z,101975.23
2018-12-26T11:32:52.415Z,101974.30
2018-12-26T11:35:16.810Z,101971.40
2018-12-26T11:37:41.282Z,101973.86
2018-12-26T11:40:26.515Z,101966.80
2018-12-26T11:42:50.930Z,101979.45
2018-12-26T11:45:15.354Z,101978.94
2018-12-26T11:47:39.792Z,101974.75
2018-12-26T11:52:43.810Z,101986.77
2018-12-26T11:55:08.207Z,101988.71
2018-12-26T11:57:32.589Z,101990.27
2018-12-26T11:59:56.999Z,101984.89
2018-12-26T12:02:21.420Z,101993.46
2018-12-26T12:04:45.831Z,101992.64
2018-12-26T12:07:10.322Z,101985.98
2018-12-26T12:09:34.740Z,101983.89
2018-12-26T12:11:59.141Z,101984.55
2018-12-26T12:14:23.612Z,101976.58
2018-12-26T12:16:48.042Z,101979.55
2018-12-26T12:19:12.439Z,101982.48
2018-12-26T12:21:36.991Z,101978.76
2018-12-26T12:24:01.416Z,101977.52
2018-12-26T12:26:25.841Z,101973.74
2018-12-26T12:28:50.459Z,101973.65
2018-12-26T12:31:14.829Z,101967.66
2018-12-26T12:33:39.230Z,101983.01
2018-12-26T12:36:03.698Z,101984.03
2018-12-26T12:38:28.130Z,101986.25
2018-12-26T12:40:52.531Z,101984.89
2018-12-26T12:43:16.952Z,101985.41
2018-12-26T12:45:41.349Z,101982.14
2018-12-26T12:48:05.758Z,101983.23
2018-12-26T12:50:30.229Z,101984.91
2018-12-26T12:52:54.656Z,101984.75
2018-12-26T12:55:19.055Z,101980.66
2018-12-26T12:57:43.496Z,101989.17
2018-12-26T13:03:04.888Z,101995.59
2018-12-26T13:05:29.282Z,101988.66
2018-12-26T13:07:53.667Z,101986.83
2018-12-26T13:10:18.090Z,101991.19
2018-12-26T13:12:42.505Z,101996.98
2018-12-26T13:15:06.922Z,101991.31
2018-12-26T13:17:31.326Z,101996.09
2018-12-26T13:19:55.760Z,101997.02
2018-12-26T13:22:20.159Z,101987.42
2018-12-26T13:24:44.684Z,101996.39
2018-12-26T13:27:09.073Z,102002.63
2018-12-26T13:29:33.509Z,102002.18
2018-12-26T13:31:57.927Z,102001.97
2018-12-26T13:34:22.322Z,102011.00
2018-12-26T13:36:46.742Z,102012.15
2018-12-26T13:39:11.165Z,102016.98
2018-12-26T13:41:35.602Z,102017.05
2018-12-26T13:44:00.019Z,102009.27
2018-12-26T13:46:24.443Z,102010.34
2018-12-26T13:48:48.854Z,102014.50
2018-12-26T13:51:20.841Z,102015.66
2018-12-26T13:53:45.235Z,102006.11
2018-12-26T13:56:09.623Z,102008.14
2018-12-26T13:58:34.026Z,102005.30
2018-12-26T14:00:58.424Z,102005.55
2018-12-26T14:03:22.858Z,102007.76
2018-12-26T14:05:47.258Z,102010.66
2018-12-26T14:08:11.681Z,102005.16
2018-12-26T14:10:36.097Z,102005.88
2018-12-26T14:13:00.540Z,102014.01
2018-12-26T14:15:25.005Z,101977.12
2018-12-26T14:17:49.527Z,102014.66
2018-12-26T14:20:26.642Z,102020.27
2018-12-26T14:22:51.129Z,102016.55
2018-12-26T14:25:15.535Z,102024.89
2018-12-26T14:27:39.945Z,102021.13
2018-12-26T14:33:00.831Z,102019.95
2018-12-26T14:35:25.318Z,102022.34
2018-12-26T14:37:49.721Z,102019.71
2018-12-26T14:40:14.148Z,102018.92
2018-12-26T14:42:38.566Z,102020.72
2018-12-26T14:45:03.000Z,102027.63
2018-12-26T14:47:27.469Z,102022.64
2018-12-26T14:49:51.908Z,102021.49
2018-12-26T14:52:16.314Z,102020.78
2018-12-26T14:54:40.730Z,102023.19
2018-12-26T14:57:05.202Z,102017.86
2018-12-26T14:59:29.620Z,102022.38
2018-12-26T15:01:54.031Z,102018.75
2018-12-26T15:04:18.414Z,102018.84
2018-12-26T15:06:42.832Z,102021.49
2018-12-26T15:12:04.094Z,102015.25
2018-12-26T15:14:28.488Z,102019.61
2018-12-26T15:16:52.899Z,102019.53
2018-12-26T15:22:13.936Z,102018.12
2018-12-26T15:24:38.340Z,102017.36
2018-12-26T15:27:02.874Z,102019.11
2018-12-26T15:29:27.266Z,102018.96
2018-12-26T15:31:51.691Z,102022.44
2018-12-26T15:34:16.073Z,102013.08
2018-12-26T15:36:40.755Z,102016.66
2018-12-26T15:42:01.671Z,102017.36
2018-12-26T15:44:26.080Z,102017.63
2018-12-26T15:46:50.507Z,102016.70
2018-12-26T15:49:14.912Z,102016.17
2018-12-26T15:51:39.316Z,102018.28
2018-12-26T15:54:03.732Z,102014.25
2018-12-26T15:56:28.155Z,102013.34
2018-12-26T15:58:53.159Z,102011.92
2018-12-26T16:01:17.540Z,102016.36
2018-12-26T16:03:41.930Z,102014.20
2018-12-26T16:06:06.365Z,102012.58
2018-12-26T16:08:30.781Z,102016.05
2018-12-26T16:10:55.210Z,102015.30
2018-12-26T16:13:19.626Z,102008.64
2018-12-26T16:15:44.057Z,102009.27
2018-12-26T16:18:08.434Z,102006.81
2018-12-26T16:20:32.885Z,102014.94
2018-12-26T16:22:57.281Z,102009.37
2018-12-26T16:25:21.679Z,102009.64
2018-12-26T16:27:46.097Z,102009.66
2018-12-26T16:30:10.516Z,102006.48
2018-12-26T16:32:34.917Z,102007.46
2018-12-26T16:34:59.312Z,102007.26
2018-12-26T16:37:23.738Z,102002.21
2018-12-26T16:39:48.139Z,101997.45
2018-12-26T16:42:12.549Z,102003.35
2018-12-26T16:44:36.976Z,102008.62
2018-12-26T16:47:01.376Z,102009.52
2018-12-26T16:49:25.803Z,102009.63
2018-12-26T16:51:50.214Z,102006.83
2018-12-26T16:54:14.638Z,102009.20
2018-12-26T16:56:39.060Z,102011.09
2018-12-26T16:59:03.456Z,102010.24
2018-12-26T17:01:27.884Z,102011.69
2018-12-26T17:03:52.332Z,102013.70
2018-12-26T17:06:16.733Z,102011.14
2018-12-26T17:08:41.147Z,102012.97
2018-12-26T17:11:05.597Z,102012.07
2018-12-26T17:13:29.977Z,102010.94
2018-12-26T17:15:54.376Z,102007.88
2018-12-26T17:18:18.812Z,102008.86
2018-12-26T17:20:43.212Z,102006.33
2018-12-26T17:23:07.635Z,102007.00
2018-12-26T17:25:32.045Z,102008.64
2018-12-26T17:27:56.471Z,102013.72
2018-12-26T17:30:20.889Z,102010.65
2018-12-26T17:32:45.329Z,102012.54
2018-12-26T17:35:09.739Z,102010.78
2018-12-26T17:37:34.144Z,102014.77
2018-12-26T17:39:58.544Z,102015.67
2018-12-26T17:42:22.943Z,102017.75
2018-12-26T17:44:47.374Z,102030.48
2018-12-26T17:47:11.783Z,102021.96
2018-12-26T17:49:48.691Z,102031.08
2018-12-26T17:52:13.105Z,102039.95
2018-12-26T17:57:34.099Z,102034.74
2018-12-26T18:02:55.479Z,102030.64
2018-12-26T18:05:19.892Z,102033.59
2018-12-26T18:07:44.326Z,102033.30
2018-12-26T18:10:08.784Z,102036.02
2018-12-26T18:12:33.207Z,102035.47
2018-12-26T18:14:57.636Z,102040.50
2018-12-26T18:17:22.079Z,102036.48
2018-12-26T18:19:46.513Z,102043.09
2018-12-26T18:22:10.961Z,102039.91
2018-12-26T18:24:35.379Z,102040.73
2018-12-26T18:26:59.807Z,102041.58
2018-12-26T18:29:24.215Z,102036.74
2018-12-26T18:31:48.630Z,102043.42
2018-12-26T18:34:13.025Z,102035.34
2018-12-26T18:36:37.678Z,102042.56
2018-12-26T18:39:02.059Z,102042.44
2018-12-26T18:41:26.461Z,102044.91
2018-12-26T18:43:50.952Z,102044.68
2018-12-26T18:46:15.365Z,102035.34
2018-12-26T18:48:39.791Z,102032.06
2018-12-26T18:51:04.188Z,102032.19
2018-12-26T18:53:28.605Z,102034.88
2018-12-26T18:55:53.025Z,102041.55
2018-12-26T18:58:17.442Z,102031.95
2018-12-26T19:00:42.007Z,102038.73
2018-12-26T19:03:06.401Z,102027.42
2018-12-26T19:05:30.850Z,102032.06
2018-12-26T19:07:55.378Z,102033.00
2018-12-26T19:10:19.757Z,102035.25
2018-12-26T19:12:44.292Z,102034.68
2018-12-26T19:15:08.765Z,102033.79
2018-12-26T19:17:33.639Z,102021.11
2018-12-26T19:19:58.400Z,102028.36
2018-12-26T19:22:22.762Z,102027.67
2018-12-26T19:24:47.203Z,102031.11
2018-12-26T19:27:11.634Z,102026.77
2018-12-26T19:29:36.069Z,102032.98
2018-12-26T19:32:00.497Z,102029.25
2018-12-26T19:34:24.893Z,102025.47
2018-12-26T19:36:49.377Z,102028.16
2018-12-26T19:39:26.287Z,102029.28
2018-12-26T19:41:50.703Z,102029.11
2018-12-26T19:44:15.125Z,102019.52
2018-12-26T19:46:39.657Z,102018.50
2018-12-26T19:49:04.067Z,102023.56
2018-12-26T19:51:28.483Z,102019.37
2018-12-26T19:53:52.895Z,102021.25
2018-12-26T19:56:19.443Z,102023.59
2018-12-26T19:58:49.088Z,102021.19
2018-12-26T20:01:13.484Z,102020.28
2018-12-26T20:03:37.938Z,102014.14
2018-12-26T20:06:02.338Z,102021.79
2018-12-26T20:08:26.761Z,102013.25
2018-12-26T20:10:51.174Z,102020.06
2018-12-26T20:13:15.601Z,102012.59
2018-12-26T20:18:15.895Z,102014.89
2018-12-26T20:20:40.293Z,102012.17
2018-12-26T20:23:04.754Z,102014.98
2018-12-26T20:25:29.169Z,102019.02
2018-12-26T20:27:53.575Z,102016.88
2018-12-26T20:30:17.992Z,102010.89
2018-12-26T20:32:42.408Z,102013.05
2018-12-26T20:35:06.830Z,102008.41
2018-12-26T20:37:31.228Z,102016.58
2018-12-26T20:39:55.651Z,102009.64
2018-12-26T20:42:20.063Z,102006.33
2018-12-26T20:44:44.516Z,102015.83
2018-12-26T20:47:09.007Z,102008.98
2018-12-26T20:49:33.420Z,101994.31
2018-12-26T20:51:57.830Z,102003.26
2018-12-26T20:54:40.147Z,102003.77
2018-12-26T20:57:04.553Z,102004.91
2018-12-26T20:59:35.029Z,102003.03
2018-12-26T21:02:05.684Z,102001.42
2018-12-26T21:04:31.329Z,101998.63
2018-12-26T21:06:55.766Z,101995.16
2018-12-26T21:09:20.188Z,101990.91
2018-12-26T21:11:44.612Z,101990.83
2018-12-26T21:14:09.031Z,101985.78
2018-12-26T21:16:33.448Z,101992.91
2018-12-26T21:18:57.877Z,101993.34
2018-12-26T21:21:22.296Z,101991.33
2018-12-26T21:23:46.743Z,101991.52
2018-12-26T21:26:11.147Z,101990.14
2018-12-26T21:28:35.578Z,101990.86
2018-12-26T21:30:59.991Z,101990.53
2018-12-26T21:33:24.412Z,101992.17
2018-12-26T21:35:48.819Z,101983.40
2018-12-26T21:38:13.254Z,101983.34
2018-12-26T21:40:37.677Z,101989.98
2018-12-26T21:43:02.149Z,101987.77
2018-12-26T21:45:26.644Z,101987.97
2018-12-26T21:47:51.072Z,101983.96
2018-12-26T21:50:15.509Z,101990.13
2018-12-26T21:55:37.311Z,101977.17
2018-12-26T21:58:01.733Z,101973.53
2018-12-26T22:00:26.163Z,101977.02
2018-12-26T22:02:50.572Z,101978.78
2018-12-26T22:05:15.010Z,101984.12
2018-12-26T22:07:39.381Z,101977.44
2018-12-26T22:13:00.614Z,101975.71
2018-12-26T22:15:25.026Z,101982.47
2018-12-26T22:17:49.437Z,101977.73
2018-12-26T22:20:13.874Z,101978.81
2018-12-26T22:22:38.314Z,101982.87
2018-12-26T22:25:02.708Z,101935.64
2018-12-26T22:27:27.142Z,101979.55
2018-12-26T22:29:51.526Z,101979.04
2018-12-26T22:32:15.947Z,101978.95
2018-12-26T22:34:40.355Z,101981.41
2018-12-26T22:37:04.812Z,101987.97
2018-12-26T22:39:29.201Z,101988.07
2018-12-26T22:44:29.856Z,101986.45
2018-12-26T22:46:54.279Z,101982.44
2018-12-26T22:49:39.481Z,101983.05
2018-12-26T22:52:03.914Z,101977.53
2018-12-26T22:54:28.308Z,101969.94
2018-12-26T22:56:52.727Z,101970.42
2018-12-26T22:59:17.130Z,101964.53
2018-12-26T23:01:41.519Z,101958.91
2018-12-26T23:04:05.940Z,101959.03
2018-12-26T23:06:30.343Z,101961.48
2018-12-26T23:08:54.796Z,101960.41
2018-12-26T23:11:19.197Z,101962.97
2018-12-26T23:13:43.586Z,101951.55
2018-12-26T23:16:08.015Z,101954.77
2018-12-26T23:18:32.409Z,101960.91
2018-12-26T23:20:56.865Z,101963.20
2018-12-26T23:23:21.256Z,101960.09
2018-12-26T23:25:45.689Z,101958.64
2018-12-26T23:28:10.104Z,101957.34
2018-12-26T23:30:34.502Z,101955.33
2018-12-26T23:32:58.904Z,101959.52
2018-12-26T23:35:23.317Z,101951.41
2018-12-26T23:37:47.740Z,101939.20
2018-12-26T23:40:12.129Z,101938.20
2018-12-26T23:42:36.545Z,101944.33
2018-12-26T23:45:00.945Z,101942.07
2018-12-26T23:47:25.355Z,101943.26
2018-12-26T23:49:49.751Z,101947.66
2018-12-26T23:52:14.188Z,101955.17
2018-12-26T23:54:38.591Z,101947.64
2018-12-26T23:57:03.099Z,101939.05
2018-12-26T23:59:27.490Z,101937.47
